Time;durP1;ratioP1;P1;durP2;ratioP2;P2;SDS_P1;SDS_P2;PMS_P1;PMS_P2;Temp;Humidity;BMP_temperature;BMP_pressure;BME280_temperature;BME280_humidity;BME280_pressure;Samples;Min_cycle;Max_cycle;Signal;HPM_P1;HPM_P2
2022/08/12 00:43:15;;;;;;;2.22;1.55;;;15.80;99.90;;;;;;5053817;28;20677;-87
2022/08/12 00:48:27;;;;;;;2.80;2.13;;;16.60;99.90;;;;;;5054043;28;20171;-87
2022/08/12 00:50:55;;;;;;;2.55;1.50;;;16.00;99.90;;;;;;5053647;28;20180;-87
2022/08/12 00:53:22;;;;;;;1.75;1.38;;;16.40;99.90;;;;;;5053887;28;20175;-87
2022/08/12 00:55:50;;;;;;;1.63;1.40;;;15.90;99.90;;;;;;5053945;28;20620;-87
2022/08/12 00:58:18;;;;;;;1.27;1.17;;;16.10;99.90;;;;;;5056406;28;20168;-87
2022/08/12 01:00:44;;;;;;;1.60;1.50;;;16.20;99.90;;;;;;5053850;28;20361;-87
2022/08/12 01:03:14;;;;;;;1.30;1.20;;;16.00;99.90;;;;;;5035986;28;20262;-87
2022/08/12 01:11:31;;;;;;;1.95;1.75;;;16.00;99.90;;;;;;5061877;28;20191;-87
2022/08/12 01:13:59;;;;;;;2.40;1.55;;;16.00;99.90;;;;;;5038951;28;20180;-87
2022/08/12 01:16:25;;;;;;;2.75;1.42;;;15.60;99.90;;;;;;5036594;28;20216;-87
2022/08/12 01:18:56;;;;;;;1.80;1.27;;;16.30;99.90;;;;;;5053379;28;20684;-87
2022/08/12 01:21:50;;;;;;;1.33;1.23;;;16.20;99.90;;;;;;5053513;28;20164;-87
2022/08/12 01:24:34;;;;;;;1.83;1.63;;;15.80;99.90;;;;;;5053227;28;20172;-87
2022/08/12 01:27:02;;;;;;;2.40;1.63;;;15.60;99.90;;;;;;5073432;28;20163;-86
2022/08/12 01:29:29;;;;;;;1.75;1.65;;;15.90;99.90;;;;;;5069502;28;20278;-86
2022/08/12 01:31:57;;;;;;;2.13;1.98;;;15.90;99.90;;;;;;5040443;28;20716;-86
2022/08/12 01:34:29;;;;;;;1.95;1.58;;;16.10;99.90;;;;;;5053353;28;20168;-87
2022/08/12 01:36:58;;;;;;;2.45;1.60;;;16.00;99.90;;;;;;5035216;28;20180;-86
2022/08/12 01:39:31;;;;;;;1.88;1.67;;;15.70;99.90;;;;;;5052978;28;20232;-87
2022/08/12 01:42:10;;;;;;;2.58;2.33;;;15.70;99.90;;;;;;5053197;28;20172;-87
2022/08/12 01:44:37;;;;;;;3.15;1.98;;;16.40;99.90;;;;;;5053277;28;20290;-87
2022/08/12 01:47:17;;;;;;;1.67;1.55;;;15.90;99.90;;;;;;5053060;28;20172;-87
2022/08/12 01:49:49;;;;;;;1.63;1.50;;;15.60;99.90;;;;;;5035579;28;20615;-87
2022/08/12 01:52:53;;;;;;;2.30;1.35;;;15.80;99.90;;;;;;5035322;28;20175;-87
2022/08/12 01:55:28;;;;;;;1.92;1.70;;;15.80;99.90;;;;;;5020216;28;20286;-87
2022/08/12 01:58:15;;;;;;;2.00;1.65;;;16.40;99.90;;;;;;5053892;28;20168;-88
2022/08/12 02:00:50;;;;;;;6.15;2.78;;;15.90;99.90;;;;;;5039648;28;20195;-87
2022/08/12 02:12:28;;;;;;;1.73;1.63;;;15.80;99.90;;;;;;5052850;28;20637;-87
2022/08/12 02:15:11;;;;;;;2.40;1.77;;;15.90;99.90;;;;;;5052790;28;20700;-87
2022/08/12 02:18:21;;;;;;;4.30;2.15;;;15.70;99.90;;;;;;5053392;28;20512;-87
2022/08/12 02:21:19;;;;;;;1.50;1.40;;;16.10;99.90;;;;;;5038251;28;20184;-87
2022/08/12 02:23:46;;;;;;;2.20;1.70;;;16.00;99.90;;;;;;5003213;28;20195;-86
2022/08/12 02:26:15;;;;;;;1.95;1.40;;;15.80;99.90;;;;;;5052585;28;20175;-86
2022/08/12 02:28:41;;;;;;;2.60;1.90;;;15.90;99.90;;;;;;5052455;28;20198;-86
2022/08/12 02:31:07;;;;;;;2.40;1.90;;;15.90;99.90;;;;;;5052332;28;20629;-86
2022/08/12 02:33:36;;;;;;;3.45;2.35;;;15.90;99.90;;;;;;5052797;28;20184;-86
2022/08/12 02:36:03;;;;;;;1.63;1.50;;;16.50;99.90;;;;;;5052622;28;20181;-87
2022/08/12 02:38:30;;;;;;;2.10;1.90;;;16.00;99.90;;;;;;5052588;28;20249;-86
2022/08/12 02:41:00;;;;;;;2.40;2.17;;;16.10;99.90;;;;;;5053529;28;20285;-86
2022/08/12 02:43:39;;;;;;;2.15;1.58;;;16.30;99.90;;;;;;5061717;28;20243;-87
2022/08/12 02:46:10;;;;;;;1.92;1.58;;;16.40;99.90;;;;;;5064605;28;20194;-88
2022/08/12 02:48:51;;;;;;;3.80;1.80;;;16.20;99.90;;;;;;5038648;28;20172;-88
2022/08/12 02:51:24;;;;;;;1.83;1.50;;;16.00;99.90;;;;;;5056125;28;20195;-88
2022/08/12 02:53:51;;;;;;;2.35;1.92;;;16.70;99.90;;;;;;5055837;28;20259;-88
2022/08/12 02:56:17;;;;;;;2.95;2.10;;;16.30;99.90;;;;;;5038016;28;20176;-88
2022/08/12 02:58:45;;;;;;;3.20;2.20;;;16.60;99.90;;;;;;5038253;28;20207;-87
2022/08/12 03:01:12;;;;;;;1.73;1.35;;;16.10;99.90;;;;;;5038125;28;20216;-86
2022/08/12 03:03:39;;;;;;;2.00;1.65;;;16.20;99.90;;;;;;5038307;28;20176;-86
2022/08/12 03:06:20;;;;;;;2.53;1.83;;;16.70;99.90;;;;;;5055883;28;20297;-86
2022/08/12 03:08:47;;;;;;;3.20;2.05;;;16.50;99.90;;;;;;5038201;28;20535;-87
2022/08/12 03:11:22;;;;;;;3.70;1.90;;;15.90;99.90;;;;;;5037805;28;20186;-88
2022/08/12 03:13:56;;;;;;;2.67;1.60;;;15.80;99.90;;;;;;5055852;28;20166;-88
2022/08/12 03:16:22;;;;;;;3.17;1.90;;;16.30;99.90;;;;;;5037711;28;20217;-86
2022/08/12 03:18:50;;;;;;;2.17;1.50;;;16.50;99.90;;;;;;5055639;28;20207;-86
2022/08/12 03:21:17;;;;;;;1.83;1.55;;;15.90;99.90;;;;;;5038135;28;20199;-87
2022/08/12 03:23:44;;;;;;;2.60;1.83;;;16.00;99.90;;;;;;5055584;28;20182;-88
2022/08/12 03:26:11;;;;;;;2.63;1.75;;;16.30;99.90;;;;;;5055465;28;20190;-86
2022/08/12 03:28:49;;;;;;;2.50;2.30;;;16.10;99.90;;;;;;5037265;28;20180;-88
2022/08/12 03:31:16;;;;;;;2.33;2.00;;;16.20;99.90;;;;;;5022698;28;20190;-89
2022/08/12 03:33:44;;;;;;;2.22;1.63;;;16.40;99.90;;;;;;5056206;28;20184;-93
2022/08/12 03:36:16;;;;;;;2.72;2.40;;;16.30;99.90;;;;;;5056499;28;20238;-90
2022/08/12 03:38:49;;;;;;;3.75;2.05;;;16.10;99.90;;;;;;5055309;28;20207;-89
2022/08/12 03:41:34;;;;;;;4.13;2.28;;;15.80;99.90;;;;;;5055348;28;20609;-89
2022/08/12 04:01:14;;;;;;;2.08;1.88;;;16.00;99.90;;;;;;5055743;28;20256;-89
2022/08/12 04:03:53;;;;;;;1.00;1.00;;;;;;;;;;5037789;28;20629;-92
2022/08/12 04:06:25;;;;;;;2.17;1.98;;;16.00;99.90;;;;;;5037700;28;20587;-91
2022/08/12 04:08:56;;;;;;;1.50;1.38;;;16.00;99.90;;;;;;5055473;28;20183;-92
2022/08/12 04:14:13;;;;;;;2.05;1.90;;;15.80;99.90;;;;;;5040189;28;20175;-92
2022/08/12 04:16:39;;;;;;;1.63;1.52;;;16.10;99.90;;;;;;5055072;28;20226;-92
2022/08/12 04:19:06;;;;;;;2.45;2.25;;;16.30;99.90;;;;;;5054806;28;20298;-92
2022/08/12 04:21:32;;;;;;;2.75;1.98;;;15.60;99.90;;;;;;5054980;28;20183;-92
2022/08/12 04:24:00;;;;;;;2.55;2.17;;;16.30;99.90;;;;;;5055010;28;20176;-91
2022/08/12 04:26:27;;;;;;;2.30;2.10;;;15.70;99.90;;;;;;5037151;28;20188;-92
2022/08/12 04:28:55;;;;;;;4.00;3.10;;;16.30;99.90;;;;;;5037294;28;20184;-92
2022/08/12 04:31:39;;;;;;;2.67;1.83;;;16.10;99.90;;;;;;5054761;28;20172;-87
2022/08/12 04:34:06;;;;;;;4.80;2.45;;;16.10;99.90;;;;;;5055181;28;20168;-93
2022/08/12 04:36:33;;;;;;;2.55;2.33;;;16.20;99.90;;;;;;5055009;28;20659;-92
2022/08/12 04:39:00;;;;;;;3.70;2.95;;;16.20;99.90;;;;;;5054906;28;20236;-92
2022/08/12 04:41:26;;;;;;;3.70;2.63;;;16.40;99.90;;;;;;5054914;28;20175;-91
2022/08/12 04:43:52;;;;;;;2.30;2.10;;;15.80;99.90;;;;;;5055085;28;20210;-92
2022/08/12 04:46:18;;;;;;;3.63;2.28;;;16.50;99.90;;;;;;5054779;28;20696;-91
2022/08/12 04:48:45;;;;;;;2.42;2.22;;;16.60;99.90;;;;;;5036908;28;20187;-92
2022/08/12 04:51:11;;;;;;;2.97;2.50;;;16.20;99.90;;;;;;5054613;28;20175;-92
2022/08/12 04:53:38;;;;;;;2.67;2.47;;;16.90;99.90;;;;;;5036732;28;20180;-90
2022/08/12 04:56:04;;;;;;;2.05;1.80;;;17.00;99.90;;;;;;5054665;28;20211;-92
2022/08/12 04:58:31;;;;;;;2.78;2.20;;;16.40;99.90;;;;;;5054179;28;20215;-91
2022/08/12 05:00:57;;;;;;;4.00;1.90;;;16.50;99.90;;;;;;5054306;28;20176;-89
2022/08/12 05:03:25;;;;;;;3.38;2.35;;;17.00;99.90;;;;;;5053956;28;20179;-89
2022/08/12 05:05:51;;;;;;;2.30;1.80;;;17.50;99.90;;;;;;5036068;28;20645;-91
2022/08/12 05:08:18;;;;;;;3.50;2.38;;;;;;;;;;5065406;28;20186;-86
2022/08/12 05:10:45;;;;;;;4.15;2.60;;;17.00;99.90;;;;;;5070634;28;20167;-87
2022/08/12 05:13:35;;;;;;;2.15;1.95;;;17.70;99.90;;;;;;5056646;28;20221;-86
2022/08/12 05:16:02;;;;;;;2.33;1.85;;;17.30;99.90;;;;;;5035835;28;20182;-86
2022/08/12 05:18:28;;;;;;;2.67;1.98;;;;;;;;;;5053441;28;20271;-85
2022/08/12 05:20:54;;;;;;;1.85;1.70;;;;;;;;;;5035667;28;20672;-88
2022/08/12 05:23:21;;;;;;;3.40;2.50;;;17.80;99.90;;;;;;5053442;28;20175;-87
2022/08/12 05:25:48;;;;;;;3.25;2.05;;;17.70;99.90;;;;;;5053330;28;20179;-86
2022/08/12 05:28:15;;;;;;;4.13;2.80;;;18.20;99.90;;;;;;5035573;28;20517;-87
2022/08/12 05:30:41;;;;;;;5.03;3.55;;;18.30;99.90;;;;;;5053332;28;20184;-89
2022/08/12 05:33:08;;;;;;;3.20;2.28;;;18.40;99.90;;;;;;5053274;28;20180;-89
2022/08/12 05:35:38;;;;;;;2.20;2.00;;;18.50;99.90;;;;;;5055491;28;20176;-88
2022/08/12 05:40:49;;;;;;;4.43;1.88;;;17.90;99.90;;;;;;5037770;28;20238;-86
2022/08/12 05:43:16;;;;;;;4.20;3.00;;;18.40;99.90;;;;;;5053300;28;20203;-87
2022/08/12 05:45:42;;;;;;;2.90;1.90;;;18.00;99.90;;;;;;5052798;28;20249;-86
2022/08/12 05:48:08;;;;;;;4.30;2.10;;;;;;;;;;5035084;28;20175;-86
2022/08/12 05:50:34;;;;;;;2.40;1.95;;;18.30;99.90;;;;;;5052995;28;20180;-85
2022/08/12 05:53:00;;;;;;;6.38;2.92;;;18.20;99.90;;;;;;5053209;28;20172;-86
2022/08/12 05:55:26;;;;;;;3.53;2.30;;;18.20;99.90;;;;;;5053103;28;20175;-85
2022/08/12 05:57:55;;;;;;;2.70;1.77;;;18.70;99.90;;;;;;5034897;28;20182;-86
2022/08/12 06:00:25;;;;;;;1.73;1.50;;;19.10;99.90;;;;;;5052754;28;20289;-87
2022/08/12 06:02:55;;;;;;;3.10;2.35;;;18.80;99.90;;;;;;5052421;28;20714;-86
2022/08/12 06:05:22;;;;;;;1.67;1.33;;;19.40;99.90;;;;;;5052040;28;20199;-86
2022/08/12 06:07:48;;;;;;;2.42;1.80;;;;;;;;;;5052294;28;20543;-85
2022/08/12 06:10:15;;;;;;;2.03;1.83;;;19.40;99.90;;;;;;5052660;28;20633;-86
2022/08/12 06:12:41;;;;;;;4.65;1.60;;;19.50;99.90;;;;;;5021658;28;20180;-85
2022/08/12 06:15:07;;;;;;;1.75;1.25;;;19.20;99.90;;;;;;5041364;28;20172;-86
2022/08/12 06:17:33;;;;;;;1.48;1.13;;;;;;;;;;5056154;28;20262;-87
2022/08/12 06:19:59;;;;;;;1.85;1.23;;;;;;;;;;5062407;28;20702;-83
2022/08/12 06:22:25;;;;;;;2.67;1.55;;;18.90;99.90;;;;;;5051936;28;20202;-85
2022/08/12 06:24:52;;;;;;;2.40;1.58;;;;;;;;;;5051113;28;20207;-83
2022/08/12 06:27:18;;;;;;;1.90;1.30;;;;;;;;;;5056768;28;20184;-85
2022/08/12 06:29:44;;;;;;;1.65;1.20;;;;;;;;;;5024784;28;20190;-84
2022/08/12 06:32:10;;;;;;;1.67;1.58;;;;;;;;;;5040805;28;20179;-86
2022/08/12 06:34:36;;;;;;;1.33;1.23;;;;;;;;;;5041327;28;20282;-86
2022/08/12 06:37:03;;;;;;;2.10;1.17;;;;;;;;;;5054959;28;20191;-85
2022/08/12 06:39:29;;;;;;;1.33;1.02;;;;;;;;;;5023745;28;20236;-86
2022/08/12 06:44:40;;;;;;;1.98;1.40;;;;;;;;;;5066977;28;20179;-86
2022/08/12 06:47:06;;;;;;;2.63;1.30;;;;;;;;;;5059609;28;20270;-86
2022/08/12 06:49:35;;;;;;;1.20;1.10;;;19.50;99.90;;;;;;5020490;28;20255;-86
2022/08/12 06:52:03;;;;;;;1.75;1.08;;;;;;;;;;5039758;28;20629;-87
2022/08/12 06:54:29;;;;;;;2.55;1.67;;;20.20;99.90;;;;;;5054855;28;20274;-86
2022/08/12 06:56:56;;;;;;;1.85;1.30;;;;;;;;;;5054602;28;20184;-87
2022/08/12 06:59:22;;;;;;;1.88;1.77;;;;;;;;;;5054526;28;20275;-86
2022/08/12 07:01:48;;;;;;;1.63;1.33;;;;;;;;;;5066066;28;20192;-86
2022/08/12 07:04:14;;;;;;;2.42;1.25;;;;;;;;;;5043056;28;20628;-84
2022/08/12 07:06:40;;;;;;;1.67;1.42;;;19.80;99.90;;;;;;5036782;28;20259;-87
2022/08/12 07:09:06;;;;;;;2.38;1.52;;;20.60;99.90;;;;;;5060202;28;20195;-85
2022/08/12 07:11:33;;;;;;;2.95;1.50;;;20.10;99.90;;;;;;5059965;28;20256;-85
2022/08/12 07:14:02;;;;;;;1.95;1.73;;;20.40;99.90;;;;;;5060301;28;20204;-87
2022/08/12 07:16:50;;;;;;;1.42;1.33;;;20.40;99.90;;;;;;5059521;28;20179;-86
2022/08/12 07:19:16;;;;;;;1.38;1.27;;;20.40;99.90;;;;;;5064516;28;20214;-86
2022/08/12 07:21:42;;;;;;;5.97;1.52;;;;;;;;;;5063326;28;20184;-86
2022/08/12 07:24:08;;;;;;;1.42;1.02;;;;;;;;;;5047142;28;20217;-86
2022/08/12 07:26:40;;;;;;;1.85;1.30;;;;;;;;;;5067994;28;20175;-86
2022/08/12 07:29:09;;;;;;;1.90;1.52;;;20.40;99.90;;;;;;5036116;28;20196;-85
2022/08/12 07:31:36;;;;;;;3.10;1.77;;;20.90;99.90;;;;;;5071715;28;20349;-84
2022/08/12 07:34:04;;;;;;;2.40;1.45;;;21.00;99.90;;;;;;5072431;28;20241;-85
2022/08/12 07:36:32;;;;;;;1.92;1.38;;;20.80;99.90;;;;;;5052416;28;20652;-85
2022/08/12 07:38:58;;;;;;;2.08;1.35;;;;;;;;;;5072044;28;20338;-86
2022/08/12 07:41:28;;;;;;;3.50;1.25;;;20.60;99.90;;;;;;5072277;28;20176;-86
2022/08/12 07:44:04;;;;;;;2.08;1.33;;;21.30;99.90;;;;;;5043168;28;20503;-86
2022/08/12 07:46:37;;;;;;;1.65;1.40;;;20.60;99.90;;;;;;5054089;28;20250;-87
2022/08/12 07:49:08;;;;;;;1.50;1.40;;;21.00;99.90;;;;;;5054565;28;20331;-85
2022/08/12 07:51:35;;;;;;;2.45;1.10;;;21.50;99.90;;;;;;5053911;28;20192;-86
2022/08/12 07:54:03;;;;;;;1.35;1.05;;;21.50;99.90;;;;;;5034491;28;20175;-86
2022/08/12 07:56:29;;;;;;;1.15;1.05;;;21.10;99.90;;;;;;5019073;28;20241;-86
2022/08/12 07:58:57;;;;;;;1.20;1.10;;;21.40;99.90;;;;;;5052695;28;20259;-86
2022/08/12 08:01:23;;;;;;;1.70;1.38;;;20.80;99.90;;;;;;5036180;28;20206;-87
2022/08/12 08:06:41;;;;;;;2.55;1.50;;;20.70;99.90;;;;;;5051048;28;20255;-87
2022/08/12 08:09:10;;;;;;;2.25;1.70;;;21.30;99.90;;;;;;5033031;28;20194;-86
2022/08/12 08:14:28;;;;;;;2.20;1.80;;;21.60;99.90;;;;;;5051843;28;20171;-86
2022/08/12 08:16:55;;;;;;;2.00;1.50;;;21.20;99.90;;;;;;5052130;28;20163;-87
2022/08/12 08:19:22;;;;;;;1.88;1.58;;;21.30;99.90;;;;;;5054959;28;20192;-85
2022/08/12 08:21:57;;;;;;;2.65;1.27;;;21.40;99.90;;;;;;5054220;28;20180;-88
2022/08/12 08:24:26;;;;;;;2.55;1.67;;;21.50;99.90;;;;;;5054749;28;20191;-88
2022/08/12 08:26:54;;;;;;;1.55;1.30;;;21.40;99.90;;;;;;5033765;28;20261;-87
2022/08/12 08:29:21;;;;;;;1.95;1.60;;;21.40;99.90;;;;;;5055430;28;20202;-88
2022/08/12 08:31:57;;;;;;;2.75;1.83;;;21.40;99.90;;;;;;5038941;28;20180;-89
2022/08/12 08:34:25;;;;;;;3.80;1.40;;;21.40;99.90;;;;;;5034692;28;20184;-88
2022/08/12 08:36:50;;;;;;;2.03;1.63;;;21.40;99.90;;;;;;5052826;28;20183;-88
2022/08/12 08:39:16;;;;;;;3.47;2.30;;;21.40;99.90;;;;;;5036949;28;20265;-88
2022/08/12 08:44:26;;;;;;;1.95;1.20;;;21.50;99.90;;;;;;5058377;28;20199;-87
2022/08/12 08:46:54;;;;;;;1.60;1.15;;;21.50;99.90;;;;;;5053572;28;20176;-88
2022/08/12 08:49:21;;;;;;;3.35;1.23;;;21.50;99.90;;;;;;5054050;28;20576;-87
2022/08/12 08:51:47;;;;;;;2.53;1.48;;;;;;;;;;5058127;28;20176;-86
2022/08/12 08:54:14;;;;;;;2.72;1.65;;;;;;;;;;5056229;28;20187;-87
2022/08/12 08:56:48;;;;;;;1.70;1.45;;;21.60;99.90;;;;;;5064388;28;20179;-88
2022/08/12 08:59:15;;;;;;;1.80;1.42;;;21.60;99.90;;;;;;5037678;28;20574;-88
2022/08/12 09:01:42;;;;;;;0.85;0.85;;;21.60;99.90;;;;;;5053046;28;20183;-87
2022/08/12 09:04:11;;;;;;;1.70;1.52;;;21.70;99.90;;;;;;5034996;28;20171;-88
2022/08/12 09:06:40;;;;;;;1.95;1.30;;;21.60;99.90;;;;;;5052845;28;20237;-87
2022/08/12 09:09:07;;;;;;;1.40;1.25;;;21.60;99.90;;;;;;5034613;28;20250;-84
2022/08/12 09:14:18;;;;;;;2.05;1.60;;;;;;;;;;5052778;28;20174;-86
2022/08/12 09:16:44;;;;;;;2.20;1.52;;;21.70;99.90;;;;;;5051584;28;20168;-86
2022/08/12 09:19:12;;;;;;;1.52;1.40;;;21.70;99.90;;;;;;5034447;28;20215;-88
2022/08/12 09:21:38;;;;;;;1.90;1.27;;;21.80;99.90;;;;;;5054011;28;20217;-87
2022/08/12 09:24:06;;;;;;;1.98;1.50;;;;;;;;;;5050682;28;20176;-90
2022/08/12 09:26:32;;;;;;;1.98;1.23;;;;;;;;;;5050730;28;20175;-91
2022/08/12 09:28:59;;;;;;;1.55;1.23;;;21.90;99.90;;;;;;5033027;28;20645;-90
2022/08/12 09:31:26;;;;;;;1.73;1.63;;;;;;;;;;5053699;28;20183;-90
2022/08/12 09:33:53;;;;;;;1.73;1.48;;;;;;;;;;5050525;28;20176;-90
2022/08/12 09:36:20;;;;;;;1.75;1.23;;;;;;;;;;5052563;28;20179;-91
2022/08/12 09:38:46;;;;;;;2.42;1.63;;;;;;;;;;5051130;28;20230;-90
2022/08/12 09:41:15;;;;;;;1.88;1.33;;;;;;;;;;5052805;28;20167;-90
2022/08/12 09:46:30;;;;;;;2.05;1.60;;;;;;;;;;5052253;28;20186;-90
2022/08/12 09:48:57;;;;;;;1.70;1.38;;;;;;;;;;5035392;28;20195;-88
2022/08/12 09:51:24;;;;;;;2.40;1.80;;;;;;;;;;5054286;28;20170;-91
2022/08/12 09:53:50;;;;;;;2.30;1.85;;;;;;;;;;5057209;28;20690;-90
2022/08/12 09:56:17;;;;;;;1.50;1.40;;;;;;;;;;5055819;28;20176;-88
2022/08/12 09:58:46;;;;;;;2.45;1.98;;;21.40;99.90;;;;;;5056476;28;20183;-92
2022/08/12 10:01:12;;;;;;;2.97;2.00;;;;;;;;;;5039601;28;20253;-88
2022/08/12 10:03:42;;;;;;;3.08;2.45;;;;;;;;;;5056560;28;20669;-89
2022/08/12 10:06:08;;;;;;;4.38;1.95;;;;;;;;;;5038573;28;20607;-88
2022/08/12 10:08:35;;;;;;;4.53;2.13;;;21.30;99.90;;;;;;5023046;28;20241;-89
2022/08/12 10:13:51;;;;;;;2.47;1.83;;;21.00;99.90;;;;;;5060772;28;20175;-88
2022/08/12 10:16:24;;;;;;;6.45;2.60;;;20.70;99.90;;;;;;5063138;28;20266;-86
2022/08/12 10:19:00;;;;;;;1.88;1.60;;;21.90;99.90;;;;;;5075898;28;20186;-87
2022/08/12 10:21:35;;;;;;;2.92;2.03;;;20.90;99.90;;;;;;5075202;28;20217;-88
2022/08/12 10:24:03;;;;;;;3.17;2.35;;;;;;;;;;5058170;28;20179;-87
2022/08/12 10:31:59;;;;;;;3.28;2.28;;;;;;;;;;5054615;28;20213;-88
2022/08/12 10:34:25;;;;;;;2.28;1.73;;;;;;;;;;5054955;28;20175;-88
2022/08/12 10:37:00;;;;;;;3.53;2.17;;;21.10;99.90;;;;;;5054712;28;20221;-87
2022/08/12 10:39:38;;;;;;;4.00;2.53;;;21.00;99.90;;;;;;5054659;28;20237;-89
2022/08/12 10:45:03;;;;;;;2.40;1.88;;;20.80;99.90;;;;;;5055164;28;20217;-88
2022/08/12 10:47:31;;;;;;;3.53;1.60;;;20.90;99.90;;;;;;5054134;28;20172;-87
2022/08/12 10:49:58;;;;;;;1.88;1.63;;;;;;;;;;5054442;28;20275;-87
2022/08/12 10:52:25;;;;;;;2.33;1.65;;;;;;;;;;5053586;28;20534;-87
2022/08/12 10:54:51;;;;;;;3.20;1.98;;;;;;;;;;5053313;28;20262;-88
2022/08/12 10:57:17;;;;;;;4.75;2.72;;;;;;;;;;5053016;28;20182;-87
2022/08/12 10:59:43;;;;;;;1.58;1.40;;;;;;;;;;5052975;28;20313;-88
2022/08/12 11:02:13;;;;;;;2.50;1.98;;;;;;;;;;5052704;28;20176;-87
2022/08/12 11:04:39;;;;;;;2.45;1.75;;;;;;;;;;5053187;28;20267;-85
2022/08/12 11:07:05;;;;;;;3.08;2.20;;;;;;;;;;5053029;28;20180;-87
2022/08/12 11:09:36;;;;;;;3.00;1.75;;;;;;;;;;5053635;28;20214;-89
2022/08/12 11:12:05;;;;;;;3.30;2.22;;;20.20;99.90;;;;;;5036281;28;20179;-86
2022/08/12 11:14:35;;;;;;;3.25;2.65;;;20.60;99.90;;;;;;5053767;28;20310;-87
2022/08/12 11:17:05;;;;;;;5.13;2.03;;;20.50;99.90;;;;;;5036191;28;20176;-88
2022/08/12 11:19:36;;;;;;;2.35;1.90;;;20.50;99.90;;;;;;5054076;28;20703;-88
2022/08/12 11:22:03;;;;;;;2.40;1.85;;;20.40;99.90;;;;;;5036233;28;20548;-88
2022/08/12 11:24:29;;;;;;;2.33;1.38;;;;;;;;;;5053153;28;20313;-88
2022/08/12 11:26:56;;;;;;;2.80;2.28;;;20.20;99.90;;;;;;5053891;28;20251;-87
2022/08/12 11:29:23;;;;;;;2.70;1.98;;;20.20;99.90;;;;;;5053500;28;20188;-87
2022/08/12 11:31:50;;;;;;;2.72;1.90;;;;;;;;;;5053423;28;20183;-87
2022/08/12 11:34:16;;;;;;;1.70;1.58;;;;;;;;;;5053496;28;20180;-88
2022/08/12 11:36:53;;;;;;;2.83;1.85;;;20.40;99.90;;;;;;5053613;28;20179;-88
2022/08/12 11:39:19;;;;;;;2.35;1.55;;;;;;;;;;5060965;28;20239;-89
2022/08/12 11:41:45;;;;;;;2.50;2.03;;;;;;;;;;5048895;28;20184;-88
2022/08/12 11:44:11;;;;;;;2.75;2.15;;;;;;;;;;5020799;28;20217;-89
2022/08/12 11:46:38;;;;;;;2.97;1.92;;;19.60;99.90;;;;;;5053267;28;20227;-89
2022/08/12 11:49:05;;;;;;;2.05;1.45;;;19.50;99.90;;;;;;5053594;28;20176;-89
2022/08/12 11:51:31;;;;;;;3.88;2.35;;;19.40;99.90;;;;;;5053529;28;20176;-88
2022/08/12 11:53:57;;;;;;;2.97;1.63;;;;;;;;;;5035912;28;20660;-88
2022/08/12 11:56:23;;;;;;;1.70;1.58;;;;;;;;;;5019485;28;20184;-89
2022/08/12 11:58:49;;;;;;;2.95;1.80;;;19.80;99.90;;;;;;5052056;28;20187;-87
2022/08/12 12:01:16;;;;;;;2.70;1.90;;;;;;;;;;5052329;28;20198;-88
2022/08/12 12:03:42;;;;;;;4.00;2.30;;;;;;;;;;5034654;28;20187;-88
2022/08/12 12:06:08;;;;;;;2.13;1.92;;;;;;;;;;5017983;28;20180;-90
2022/08/12 12:08:34;;;;;;;2.78;1.73;;;;;;;;;;5052229;28;20625;-89
2022/08/12 12:11:00;;;;;;;3.47;2.35;;;;;;;;;;5035224;28;20234;-90
2022/08/12 12:13:26;;;;;;;3.67;2.33;;;;;;;;;;5051867;28;20195;-91
2022/08/12 12:15:52;;;;;;;2.25;1.92;;;;;;;;;;5053861;28;20699;-88
2022/08/12 12:18:32;;;;;;;2.08;1.88;;;18.80;99.90;;;;;;5035740;28;20208;-88
2022/08/12 12:21:03;;;;;;;3.53;2.25;;;18.90;99.90;;;;;;5035283;28;20673;-89
2022/08/12 12:23:30;;;;;;;1.95;1.48;;;;;;;;;;5053137;28;20184;-89
2022/08/12 12:25:56;;;;;;;2.80;2.13;;;;;;;;;;5053024;28;20179;-88
2022/08/12 12:28:22;;;;;;;1.90;1.63;;;;;;;;;;5017242;28;20228;-88
2022/08/12 12:30:48;;;;;;;3.25;1.75;;;;;;;;;;5051600;28;20187;-87
2022/08/12 12:33:15;;;;;;;3.75;2.35;;;;;;;;;;5052908;28;20175;-89
2022/08/12 12:35:41;;;;;;;3.13;2.28;;;;;;;;;;5034372;28;20553;-89
2022/08/12 12:38:08;;;;;;;3.25;2.40;;;18.70;99.90;;;;;;5034025;28;20202;-88
2022/08/12 12:40:35;;;;;;;3.08;2.00;;;18.70;99.90;;;;;;5063393;28;20242;-88
2022/08/12 12:43:02;;;;;;;4.57;2.30;;;18.80;99.90;;;;;;5049979;28;20187;-87
2022/08/12 12:45:28;;;;;;;3.95;2.25;;;;;;;;;;5053561;28;20184;-88
2022/08/12 12:48:08;;;;;;;2.53;1.60;;;18.60;99.90;;;;;;5050416;28;20184;-87
2022/08/12 12:50:37;;;;;;;3.70;1.83;;;18.80;99.90;;;;;;5032876;28;20186;-89
2022/08/12 12:53:07;;;;;;;2.70;1.98;;;18.90;99.90;;;;;;5051312;28;20184;-88
2022/08/12 12:55:34;;;;;;;5.70;2.80;;;;;;;;;;5032092;28;20263;-90
2022/08/12 12:58:15;;;;;;;6.35;3.30;;;18.80;99.90;;;;;;5031839;28;20184;-88
2022/08/12 13:00:43;;;;;;;3.80;3.03;;;;;;;;;;5018060;28;20606;-88
2022/08/12 13:03:11;;;;;;;3.72;2.50;;;18.80;99.90;;;;;;5033478;28;20238;-88
2022/08/12 13:05:37;;;;;;;2.40;1.95;;;;;;;;;;5051532;28;20175;-89
2022/08/12 13:08:23;;;;;;;3.45;2.38;;;18.80;99.90;;;;;;5033985;28;20184;-90
2022/08/12 13:10:49;;;;;;;2.70;2.38;;;18.30;99.90;;;;;;5051619;28;20164;-90
2022/08/12 13:13:18;;;;;;;4.00;2.45;;;;;;;;;;5017691;28;20652;-89
2022/08/12 13:15:45;;;;;;;2.97;2.30;;;;;;;;;;5051220;28;20171;-88
2022/08/12 13:18:11;;;;;;;3.47;2.08;;;;;;;;;;5034036;28;20183;-90
2022/08/12 13:20:37;;;;;;;2.30;1.75;;;18.20;99.90;;;;;;5051065;28;20672;-86
2022/08/12 13:23:03;;;;;;;3.75;2.28;;;;;;;;;;5050697;28;20218;-89
2022/08/12 13:25:30;;;;;;;2.65;2.40;;;;;;;;;;5031875;28;20553;-88
2022/08/12 13:27:56;;;;;;;3.05;2.20;;;;;;;;;;5051218;28;20171;-90
2022/08/12 13:30:24;;;;;;;3.67;2.47;;;18.70;99.90;;;;;;5032819;28;20183;-89
2022/08/12 13:32:58;;;;;;;2.97;2.35;;;18.80;99.90;;;;;;5033335;28;20180;-88
2022/08/12 13:35:34;;;;;;;2.88;2.45;;;18.80;99.90;;;;;;5032932;28;20778;-89
2022/08/12 13:38:00;;;;;;;2.67;2.22;;;;;;;;;;5033242;28;20175;-92
2022/08/12 13:40:28;;;;;;;3.70;2.45;;;18.80;99.90;;;;;;5033928;28;20662;-90
2022/08/12 13:42:56;;;;;;;3.33;2.63;;;;;;;;;;5033631;28;20198;-88
2022/08/12 13:45:28;;;;;;;4.57;2.42;;;18.80;99.90;;;;;;5032801;28;20205;-88
2022/08/12 13:48:01;;;;;;;2.97;2.30;;;18.80;99.90;;;;;;5050655;28;20172;-88
2022/08/12 13:50:35;;;;;;;2.53;2.33;;;18.80;99.90;;;;;;5032353;28;20211;-88
2022/08/12 13:53:11;;;;;;;3.13;2.40;;;18.80;99.90;;;;;;5049686;28;20298;-88
2022/08/12 13:55:39;;;;;;;3.80;2.90;;;18.70;99.90;;;;;;5048880;28;20163;-89
2022/08/12 13:58:05;;;;;;;3.88;2.85;;;;;;;;;;5049352;28;20191;-87
2022/08/12 14:00:34;;;;;;;4.15;2.70;;;19.10;99.90;;;;;;5047936;28;20207;-86
2022/08/12 14:03:01;;;;;;;3.47;2.60;;;18.70;99.90;;;;;;5052627;28;20251;-87
2022/08/12 14:05:27;;;;;;;3.92;2.58;;;18.50;99.90;;;;;;5049232;28;20190;-84
2022/08/12 14:07:59;;;;;;;4.80;3.08;;;18.90;99.90;;;;;;5074895;28;20209;-87
2022/08/12 14:10:37;;;;;;;4.90;2.58;;;18.90;99.90;;;;;;5057075;28;20156;-88
2022/08/12 14:13:13;;;;;;;4.38;2.88;;;19.00;99.90;;;;;;5053404;28;20156;-86
2022/08/12 14:15:41;;;;;;;4.38;2.90;;;19.10;99.90;;;;;;5050347;28;20181;-87
2022/08/12 14:18:10;;;;;;;4.50;3.13;;;19.10;99.90;;;;;;5050424;28;20187;-87
2022/08/12 14:20:36;;;;;;;4.50;2.50;;;18.80;99.90;;;;;;5032163;28;20353;-88
2022/08/12 14:23:02;;;;;;;3.17;2.72;;;;;;;;;;5032419;28;20615;-88
2022/08/12 14:25:29;;;;;;;2.80;1.98;;;;;;;;;;5032191;28;20186;-85
2022/08/12 14:27:55;;;;;;;3.97;2.95;;;;;;;;;;5050226;28;20637;-86
2022/08/12 14:30:22;;;;;;;5.15;2.92;;;19.70;99.90;;;;;;5034059;28;20234;-89
2022/08/12 14:32:48;;;;;;;3.15;2.28;;;;;;;;;;5051089;28;20186;-89
2022/08/12 14:35:14;;;;;;;4.32;2.80;;;;;;;;;;5050481;28;20536;-87
2022/08/12 14:37:40;;;;;;;4.95;3.42;;;;;;;;;;5052464;28;20180;-87
2022/08/12 14:40:08;;;;;;;4.18;2.80;;;;;;;;;;5054501;28;20237;-85
2022/08/12 14:42:34;;;;;;;3.42;2.75;;;;;;;;;;5054850;28;20263;-86
2022/08/12 14:45:00;;;;;;;6.18;4.35;;;;;;;;;;5054246;28;20183;-85
2022/08/12 14:47:26;;;;;;;5.22;3.20;;;;;;;;;;5053606;28;20191;-88
2022/08/12 14:49:52;;;;;;;7.32;3.22;;;;;;;;;;5054592;28;20183;-86
2022/08/12 14:52:19;;;;;;;7.03;3.92;;;;;;;;;;5054622;28;20187;-85
2022/08/12 14:54:45;;;;;;;3.60;2.85;;;;;;;;;;5036805;28;20192;-86
2022/08/12 14:57:11;;;;;;;6.68;3.35;;;;;;;;;;5055478;28;20191;-84
2022/08/12 15:02:22;;;;;;;3.70;2.50;;;;;;;;;;5055690;28;20522;-83
2022/08/12 15:04:54;;;;;;;2.45;2.25;;;19.00;99.90;;;;;;5056122;28;20180;-85
2022/08/12 15:07:20;;;;;;;6.47;2.83;;;;;;;;;;5055495;28;20246;-83
2022/08/12 15:09:46;;;;;;;6.22;2.60;;;19.40;99.90;;;;;;5055664;28;20188;-85
2022/08/12 15:12:24;;;;;;;5.25;2.88;;;18.90;99.90;;;;;;5037103;28;20172;-86
2022/08/12 15:14:52;;;;;;;7.07;2.47;;;;;;;;;;5036354;28;20266;-85
2022/08/12 15:17:18;;;;;;;3.45;1.98;;;;;;;;;;5053233;28;20271;-86
2022/08/12 15:19:44;;;;;;;3.33;2.17;;;;;;;;;;5052667;28;20262;-85
2022/08/12 15:22:10;;;;;;;5.20;2.70;;;;;;;;;;5052929;28;20191;-84
2022/08/12 15:24:36;;;;;;;6.88;3.78;;;;;;;;;;5052781;28;20263;-87